createdAt,value
2022-09-12T00:00:12.783Z,13.85
2022-09-12T00:01:11.899Z,13.83
2022-09-12T00:02:11.879Z,13.81
2022-09-12T00:03:11.828Z,13.79
2022-09-12T00:04:11.828Z,13.81
2022-09-12T00:05:11.787Z,13.83
2022-09-12T00:06:11.775Z,13.85
2022-09-12T00:07:11.765Z,13.86
2022-09-12T00:08:11.773Z,13.85
2022-09-12T00:09:11.746Z,13.83
2022-09-12T00:10:11.753Z,13.83
2022-09-12T00:11:11.728Z,13.79
2022-09-12T00:12:11.696Z,13.78
2022-09-12T00:13:11.730Z,13.74
2022-09-12T00:14:11.777Z,13.71
2022-09-12T00:15:11.786Z,13.70
2022-09-12T00:16:11.676Z,13.70
2022-09-12T00:17:11.653Z,13.71
2022-09-12T00:18:11.638Z,13.71
2022-09-12T00:19:11.685Z,13.74
2022-09-12T00:20:11.613Z,13.72
2022-09-12T00:21:11.619Z,13.70
2022-09-12T00:22:11.587Z,13.67
2022-09-12T00:23:11.586Z,13.62
2022-09-12T00:24:11.577Z,13.59
2022-09-12T00:25:11.605Z,13.56
2022-09-12T00:26:11.539Z,13.52
2022-09-12T00:27:11.570Z,13.52
2022-09-12T00:28:11.527Z,13.49
2022-09-12T00:29:11.521Z,13.46
2022-09-12T00:30:11.519Z,13.44
2022-09-12T00:31:11.515Z,13.42
2022-09-12T00:32:11.513Z,13.39
2022-09-12T00:33:11.463Z,13.38
2022-09-12T00:34:11.451Z,13.37
2022-09-12T00:35:11.453Z,13.37
2022-09-12T00:36:11.481Z,13.33
2022-09-12T00:37:11.478Z,13.31
2022-09-12T00:38:11.447Z,13.33
2022-09-12T00:39:11.416Z,13.35
2022-09-12T00:40:11.433Z,13.38
2022-09-12T00:41:11.376Z,13.35
2022-09-12T00:42:11.369Z,13.31
2022-09-12T00:43:11.358Z,13.31
2022-09-12T00:44:11.365Z,13.28
2022-09-12T00:45:11.355Z,13.28
2022-09-12T00:46:11.346Z,13.27
2022-09-12T00:47:11.312Z,13.27
2022-09-12T00:48:11.305Z,13.23
2022-09-12T00:49:11.341Z,13.23
2022-09-12T00:50:11.263Z,13.20
2022-09-12T00:51:11.257Z,13.18
2022-09-12T00:52:11.270Z,13.18
2022-09-12T00:53:11.241Z,13.15
2022-09-12T00:54:11.236Z,13.12
2022-09-12T00:55:11.252Z,13.12
2022-09-12T00:56:11.235Z,13.12
2022-09-12T00:57:11.218Z,13.13
2022-09-12T00:58:11.188Z,13.16
2022-09-12T00:59:11.198Z,13.15
2022-09-12T01:00:11.197Z,13.13
2022-09-12T01:01:11.264Z,13.12
2022-09-12T01:02:11.296Z,13.09
2022-09-12T01:03:11.135Z,13.09
2022-09-12T01:04:11.171Z,13.09
2022-09-12T01:05:11.120Z,13.09
2022-09-12T01:06:11.182Z,13.08
2022-09-12T01:07:11.176Z,13.09
2022-09-12T01:08:11.083Z,13.05
2022-09-12T01:09:11.070Z,13.05
2022-09-12T01:10:11.115Z,13.04
2022-09-12T01:11:11.058Z,13.04
2022-09-12T01:12:11.043Z,13.05
2022-09-12T01:13:11.042Z,13.08
2022-09-12T01:14:11.029Z,13.08
2022-09-12T01:15:11.033Z,13.05
2022-09-12T01:16:11.067Z,13.08
2022-09-12T01:17:10.991Z,13.09
2022-09-12T01:18:10.993Z,13.08
2022-09-12T01:19:10.990Z,13.08
2022-09-12T01:20:10.955Z,13.05
2022-09-12T01:21:10.939Z,13.05
2022-09-12T01:22:10.988Z,13.04
2022-09-12T01:23:10.914Z,12.98
2022-09-12T01:24:10.933Z,12.98
2022-09-12T01:25:10.906Z,12.98
2022-09-12T01:26:10.885Z,13.00
2022-09-12T01:27:10.940Z,12.98
2022-09-12T01:28:10.874Z,12.97
2022-09-12T01:29:10.846Z,12.95
2022-09-12T01:30:10.858Z,12.93
2022-09-12T01:31:10.857Z,12.91
2022-09-12T01:32:10.845Z,12.87
2022-09-12T01:33:10.808Z,12.87
2022-09-12T01:34:10.846Z,12.90
2022-09-12T01:35:10.801Z,12.91
2022-09-12T01:36:10.810Z,12.91
2022-09-12T01:37:10.868Z,12.90
2022-09-12T01:38:10.757Z,12.85
2022-09-12T01:39:10.748Z,12.85
2022-09-12T01:40:10.821Z,12.83
2022-09-12T01:41:10.729Z,12.82
2022-09-12T01:42:10.725Z,12.80
2022-09-12T01:43:10.726Z,12.79
2022-09-12T01:44:10.687Z,12.78
2022-09-12T01:45:10.680Z,12.79
2022-09-12T01:46:10.776Z,12.79
2022-09-12T01:47:10.674Z,12.79
2022-09-12T01:48:10.662Z,12.82
2022-09-12T01:49:10.645Z,12.82
2022-09-12T01:50:10.639Z,12.83
2022-09-12T01:51:10.633Z,12.85
2022-09-12T01:52:10.843Z,12.85
2022-09-12T01:53:10.633Z,12.86
2022-09-12T01:54:10.585Z,12.87
2022-09-12T01:55:10.567Z,12.90
2022-09-12T01:56:10.619Z,12.90
2022-09-12T01:57:10.553Z,12.90
2022-09-12T01:58:10.551Z,12.87
2022-09-12T01:59:10.535Z,12.85
2022-09-12T02:00:10.536Z,12.80
2022-09-12T02:01:10.561Z,12.79
2022-09-12T02:02:10.567Z,12.76
2022-09-12T02:03:10.481Z,12.75
2022-09-12T02:04:10.520Z,12.73
2022-09-12T02:05:10.463Z,12.72
2022-09-12T02:06:10.461Z,12.68
2022-09-12T02:07:10.433Z,12.65
2022-09-12T02:08:10.448Z,12.65
2022-09-12T02:09:10.417Z,12.64
2022-09-12T02:10:10.429Z,12.65
2022-09-12T02:11:10.400Z,12.67
2022-09-12T02:12:10.377Z,12.65
2022-09-12T02:13:10.368Z,12.62
2022-09-12T02:14:10.358Z,12.61
2022-09-12T02:15:10.428Z,12.60
2022-09-12T02:16:10.387Z,12.61
2022-09-12T02:17:10.350Z,12.60
2022-09-12T02:18:10.346Z,12.58
2022-09-12T02:19:10.290Z,12.55
2022-09-12T02:20:14.615Z,12.53
2022-09-12T02:21:11.301Z,12.50
2022-09-12T02:22:10.306Z,12.49
2022-09-12T02:23:10.321Z,12.46
2022-09-12T02:24:10.242Z,12.46
2022-09-12T02:25:10.248Z,12.45
2022-09-12T02:26:10.253Z,12.46
2022-09-12T02:27:10.213Z,12.45
2022-09-12T02:28:10.231Z,12.47
2022-09-12T02:29:10.224Z,12.47
2022-09-12T02:30:10.177Z,12.50
2022-09-12T02:31:10.165Z,12.49
2022-09-12T02:32:10.156Z,12.49
2022-09-12T02:33:10.213Z,12.53
2022-09-12T02:34:10.143Z,12.53
2022-09-12T02:35:10.116Z,12.50
2022-09-12T02:36:10.136Z,12.54
2022-09-12T02:37:10.111Z,12.53
2022-09-12T02:38:10.117Z,12.50
2022-09-12T02:39:10.121Z,12.47
2022-09-12T02:40:10.163Z,12.46
2022-09-12T02:41:10.062Z,12.47
2022-09-12T02:42:10.050Z,12.49
2022-09-12T02:43:10.043Z,12.49
2022-09-12T02:44:10.090Z,12.49
2022-09-12T02:45:10.062Z,12.50
2022-09-12T02:46:10.129Z,12.54
2022-09-12T02:47:10.029Z,12.55
2022-09-12T02:48:09.980Z,12.54
2022-09-12T02:49:09.962Z,12.55
2022-09-12T02:50:10.021Z,12.55
2022-09-12T02:51:09.959Z,12.54
2022-09-12T02:52:09.930Z,12.53
2022-09-12T02:53:09.989Z,12.49
2022-09-12T02:54:09.930Z,12.49
2022-09-12T02:55:09.939Z,12.49
2022-09-12T02:56:09.928Z,12.49
2022-09-12T02:57:09.916Z,12.46
2022-09-12T02:58:09.878Z,12.43
2022-09-12T02:59:09.852Z,12.42
2022-09-12T03:00:09.869Z,12.40
2022-09-12T03:01:09.933Z,12.37
2022-09-12T03:02:09.890Z,12.35
2022-09-12T03:03:09.850Z,12.32
2022-09-12T03:04:10.743Z,12.29
2022-09-12T03:05:09.792Z,12.31
2022-09-12T03:06:09.780Z,12.31
2022-09-12T03:07:09.773Z,12.27
2022-09-12T03:08:09.771Z,12.24
2022-09-12T03:09:09.777Z,12.22
2022-09-12T03:10:09.763Z,12.21
2022-09-12T03:11:09.733Z,12.21
2022-09-12T03:12:09.707Z,12.22
2022-09-12T03:13:09.714Z,12.22
2022-09-12T03:14:09.708Z,12.22
2022-09-12T03:15:09.722Z,12.22
2022-09-12T03:16:09.708Z,12.21
2022-09-12T03:17:09.679Z,12.18
2022-09-12T03:18:09.685Z,12.17
2022-09-12T03:19:09.685Z,12.17
2022-09-12T03:20:09.630Z,12.18
2022-09-12T03:21:09.645Z,12.20
2022-09-12T03:22:09.610Z,12.18
2022-09-12T03:23:09.645Z,12.18
2022-09-12T03:24:09.605Z,12.21
2022-09-12T03:25:09.590Z,12.21
2022-09-12T03:26:09.547Z,12.21
2022-09-12T03:27:09.593Z,12.22
2022-09-12T03:28:09.559Z,12.22
2022-09-12T03:29:09.559Z,12.21
2022-09-12T03:30:09.529Z,12.18
2022-09-12T03:31:09.488Z,12.20
2022-09-12T03:32:09.507Z,12.20
2022-09-12T03:33:09.508Z,12.18
2022-09-12T03:34:09.481Z,12.21
2022-09-12T03:35:09.442Z,12.20
2022-09-12T03:36:09.473Z,12.18
2022-09-12T03:37:09.458Z,12.17
2022-09-12T03:38:09.441Z,12.18
2022-09-12T03:39:09.451Z,12.17
2022-09-12T03:40:09.483Z,12.17
2022-09-12T03:41:09.402Z,12.20
2022-09-12T03:42:09.389Z,12.20
2022-09-12T03:43:09.403Z,12.20
2022-09-12T03:44:09.369Z,12.18
2022-09-12T03:45:09.398Z,12.17
2022-09-12T03:46:09.430Z,12.15
2022-09-12T03:47:11.199Z,12.13
2022-09-12T03:48:09.325Z,12.12
2022-09-12T03:49:09.312Z,12.13
2022-09-12T03:50:09.292Z,12.12
2022-09-12T03:51:09.306Z,12.10
2022-09-12T03:52:09.271Z,12.10
2022-09-12T03:53:09.267Z,12.09
2022-09-12T03:54:09.242Z,12.10
2022-09-12T03:55:09.233Z,12.09
2022-09-12T03:56:09.232Z,12.10
2022-09-12T03:57:09.268Z,12.07
2022-09-12T03:58:09.197Z,12.07
2022-09-12T03:59:09.178Z,12.04
2022-09-12T04:00:09.200Z,12.04
2022-09-12T04:01:09.224Z,12.03
2022-09-12T04:02:09.274Z,12.02
2022-09-12T04:03:09.167Z,12.04
2022-09-12T04:04:09.136Z,12.04
2022-09-12T04:05:09.144Z,12.03
2022-09-12T04:06:10.621Z,12.02
2022-09-12T04:07:09.107Z,12.02
2022-09-12T04:08:09.488Z,12.03
2022-09-12T04:09:09.931Z,12.03
2022-09-12T04:10:09.773Z,12.06
2022-09-12T04:11:09.184Z,12.09
2022-09-12T04:12:10.521Z,12.07
2022-09-12T04:13:10.502Z,12.07
2022-09-12T04:14:09.052Z,12.06
2022-09-12T04:15:09.970Z,12.06
2022-09-12T04:16:09.042Z,12.06
2022-09-12T04:17:08.990Z,12.06
2022-09-12T04:18:09.672Z,12.04
2022-09-12T04:19:08.977Z,12.03
2022-09-12T04:20:09.010Z,12.02
2022-09-12T04:21:09.064Z,12.00
2022-09-12T04:22:09.036Z,11.99
2022-09-12T04:23:08.996Z,11.97
2022-09-12T04:24:10.372Z,11.97
2022-09-12T04:25:08.923Z,11.99
2022-09-12T04:26:08.899Z,11.95
2022-09-12T04:27:08.873Z,11.95
2022-09-12T04:28:08.898Z,11.95
2022-09-12T04:29:08.876Z,11.94
2022-09-12T04:30:08.856Z,11.91
2022-09-12T04:31:09.621Z,11.90
2022-09-12T04:32:08.842Z,11.87
2022-09-12T04:33:09.765Z,11.88
2022-09-12T04:34:08.824Z,11.87
2022-09-12T04:35:08.816Z,11.87
2022-09-12T04:36:09.752Z,11.86
2022-09-12T04:37:08.835Z,11.84
2022-09-12T04:38:08.911Z,11.84
2022-09-12T04:39:08.883Z,11.86
2022-09-12T04:40:08.788Z,11.86
2022-09-12T04:41:09.545Z,11.86
2022-09-12T04:42:08.711Z,11.86
2022-09-12T04:43:13.706Z,11.84
2022-09-12T04:44:09.767Z,11.86
2022-09-12T04:45:08.698Z,11.87
2022-09-12T04:46:08.683Z,11.87
2022-09-12T04:47:08.667Z,11.90
2022-09-12T04:48:08.701Z,11.90
2022-09-12T04:49:08.668Z,11.95
2022-09-12T04:50:08.656Z,11.99
2022-09-12T04:51:08.804Z,11.97
2022-09-12T04:52:08.599Z,11.97
2022-09-12T04:53:08.613Z,11.97
2022-09-12T04:54:08.589Z,11.97
2022-09-12T04:55:08.569Z,11.95
2022-09-12T04:56:08.600Z,11.97
2022-09-12T04:57:08.639Z,11.97
2022-09-12T04:58:08.531Z,11.97
2022-09-12T04:59:08.538Z,11.97
2022-09-12T05:00:08.503Z,11.97
2022-09-12T05:01:09.224Z,12.00
2022-09-12T05:02:09.368Z,12.03
2022-09-12T05:03:08.487Z,12.06
2022-09-12T05:04:08.462Z,12.09
2022-09-12T05:05:09.408Z,12.10
2022-09-12T05:06:08.444Z,12.12
2022-09-12T05:07:08.461Z,12.10
2022-09-12T05:08:08.469Z,12.12
2022-09-12T05:09:08.419Z,12.13
2022-09-12T05:10:08.407Z,12.12
2022-09-12T05:11:08.772Z,12.15
2022-09-12T05:12:08.421Z,12.15
2022-09-12T05:13:08.415Z,12.15
2022-09-12T05:14:09.809Z,12.15
2022-09-12T05:15:08.361Z,12.15
2022-09-12T05:16:08.374Z,12.15
2022-09-12T05:17:08.677Z,12.17
2022-09-12T05:18:08.347Z,12.17
2022-09-12T05:19:08.710Z,12.18
2022-09-12T05:20:09.129Z,12.18
2022-09-12T05:21:08.277Z,12.18
2022-09-12T05:22:08.286Z,12.18
2022-09-12T05:23:08.278Z,12.20
2022-09-12T05:24:08.229Z,12.21
2022-09-12T05:25:08.257Z,12.22
2022-09-12T05:26:08.228Z,12.24
2022-09-12T05:27:08.207Z,12.27
2022-09-12T05:28:08.208Z,12.28
2022-09-12T05:29:08.213Z,12.29
2022-09-12T05:30:08.351Z,12.35
2022-09-12T05:31:08.212Z,12.36
2022-09-12T05:32:09.639Z,12.40
2022-09-12T05:33:09.606Z,12.42
2022-09-12T05:34:08.221Z,12.45
2022-09-12T05:35:09.572Z,12.47
2022-09-12T05:36:08.122Z,12.49
2022-09-12T05:37:08.171Z,12.57
2022-09-12T05:38:08.075Z,12.68
2022-09-12T05:39:08.086Z,12.79
2022-09-12T05:40:08.111Z,12.91
2022-09-12T05:41:08.051Z,13.04
2022-09-12T05:42:08.045Z,13.09
2022-09-12T05:43:08.036Z,13.16
2022-09-12T05:44:08.027Z,13.20
2022-09-12T05:45:08.026Z,13.28
2022-09-12T05:46:08.048Z,13.30
2022-09-12T05:47:08.038Z,13.39
2022-09-12T05:48:07.975Z,13.44
2022-09-12T05:49:07.963Z,13.50
2022-09-12T05:50:08.905Z,13.53
2022-09-12T05:51:07.960Z,13.54
2022-09-12T05:52:07.962Z,13.54
2022-09-12T05:53:07.920Z,13.57
2022-09-12T05:54:09.367Z,13.59
2022-09-12T05:55:09.857Z,13.63
2022-09-12T05:56:07.922Z,13.71
2022-09-12T05:57:07.972Z,13.79
2022-09-12T05:58:09.383Z,13.86
2022-09-12T05:59:09.308Z,13.93
2022-09-12T06:00:08.817Z,13.96
2022-09-12T06:01:09.322Z,14.03
2022-09-12T06:02:08.683Z,14.07
2022-09-12T06:03:08.047Z,14.11
2022-09-12T06:04:07.947Z,14.15
2022-09-12T06:05:08.074Z,14.18
2022-09-12T06:06:09.222Z,14.22
2022-09-12T06:07:07.845Z,14.26
2022-09-12T06:08:07.880Z,14.30
2022-09-12T06:09:07.821Z,14.33
2022-09-12T06:10:07.969Z,14.37
2022-09-12T06:11:09.182Z,14.44
2022-09-12T06:12:07.817Z,14.45
2022-09-12T06:13:09.163Z,14.48
2022-09-12T06:14:09.141Z,14.51
2022-09-12T06:15:07.914Z,14.55
2022-09-12T06:16:09.121Z,14.62
2022-09-12T06:17:08.151Z,14.68
2022-09-12T06:18:08.489Z,14.70
2022-09-12T06:19:07.784Z,14.77
2022-09-12T06:20:07.757Z,14.78
2022-09-12T06:21:09.074Z,14.82
2022-09-12T06:22:07.686Z,14.85
2022-09-12T06:23:08.454Z,14.88
2022-09-12T06:24:07.624Z,14.91
2022-09-12T06:25:08.407Z,14.94
2022-09-12T06:26:09.005Z,14.94
2022-09-12T06:27:09.011Z,14.94
2022-09-12T06:28:08.982Z,14.97
2022-09-12T06:29:07.670Z,15.00
2022-09-12T06:30:07.629Z,15.03
2022-09-12T06:31:07.561Z,15.07
2022-09-12T06:32:07.798Z,15.11
2022-09-12T06:33:07.516Z,15.19
2022-09-12T06:34:07.490Z,15.22
2022-09-12T06:35:08.908Z,15.27
2022-09-12T06:36:12.178Z,15.29
2022-09-12T06:37:09.430Z,15.35
2022-09-12T06:38:08.885Z,15.36
2022-09-12T06:39:08.197Z,15.40
2022-09-12T06:40:07.458Z,15.42
2022-09-12T06:41:08.854Z,15.46
2022-09-12T06:42:07.454Z,15.46
2022-09-12T06:43:08.326Z,15.51
2022-09-12T06:44:07.516Z,15.52
2022-09-12T06:45:07.351Z,15.55
2022-09-12T06:46:07.370Z,15.58
2022-09-12T06:47:07.470Z,15.61
2022-09-12T06:48:09.266Z,15.64
2022-09-12T06:49:07.425Z,15.67
2022-09-12T06:50:07.390Z,15.70
2022-09-12T06:51:08.731Z,15.73
2022-09-12T06:52:08.090Z,15.77
2022-09-12T06:53:08.205Z,15.79
2022-09-12T06:54:07.272Z,15.83
2022-09-12T06:55:08.225Z,15.86
2022-09-12T06:56:07.294Z,15.91
2022-09-12T06:57:08.656Z,15.94
2022-09-12T06:58:07.427Z,15.97
2022-09-12T06:59:08.651Z,16.00
2022-09-12T07:00:07.202Z,16.02
2022-09-12T07:01:08.185Z,16.08
2022-09-12T07:02:07.281Z,16.10
2022-09-12T07:03:08.616Z,16.15
2022-09-12T07:04:08.587Z,16.17
2022-09-12T07:05:07.141Z,16.23
2022-09-12T07:06:07.106Z,16.28
2022-09-12T07:07:07.119Z,16.29
2022-09-12T07:08:07.094Z,16.33
2022-09-12T07:09:07.119Z,16.36
2022-09-12T07:10:07.112Z,16.41
2022-09-12T07:11:07.058Z,16.42
2022-09-12T07:12:07.047Z,16.47
2022-09-12T07:13:07.052Z,16.47
2022-09-12T07:14:07.014Z,16.51
2022-09-12T07:15:07.013Z,16.54
2022-09-12T07:16:07.015Z,16.58
2022-09-12T07:17:07.067Z,16.60
2022-09-12T07:18:06.959Z,16.64
2022-09-12T07:19:07.010Z,16.66
2022-09-12T07:20:06.952Z,16.66
2022-09-12T07:21:06.969Z,16.71
2022-09-12T07:22:06.962Z,16.72
2022-09-12T07:23:07.360Z,16.76
2022-09-12T07:24:06.919Z,16.78
2022-09-12T07:25:06.889Z,16.81
2022-09-12T07:26:06.886Z,16.84
2022-09-12T07:27:06.876Z,16.86
2022-09-12T07:28:06.875Z,16.89
2022-09-12T07:29:35.353Z,16.91
2022-09-12T07:30:07.850Z,16.94
2022-09-12T07:31:06.910Z,16.99
2022-09-12T07:32:06.861Z,16.99
2022-09-12T07:33:06.806Z,17.04
2022-09-12T07:34:06.808Z,17.06
2022-09-12T07:35:07.797Z,17.09
2022-09-12T07:36:06.789Z,17.09
2022-09-12T07:37:06.785Z,17.14
2022-09-12T07:38:06.758Z,17.14
2022-09-12T07:39:06.745Z,17.15
2022-09-12T07:40:06.827Z,17.16
2022-09-12T07:41:06.740Z,17.22
2022-09-12T07:42:06.718Z,17.24
2022-09-12T07:43:06.697Z,17.27
2022-09-12T07:44:06.721Z,17.29
2022-09-12T07:45:06.687Z,17.33
2022-09-12T07:46:06.740Z,17.34
2022-09-12T07:47:06.689Z,17.36
2022-09-12T07:48:06.642Z,17.39
2022-09-12T07:49:08.274Z,17.39
2022-09-12T07:50:06.619Z,17.41
2022-09-12T07:51:06.633Z,17.39
2022-09-12T07:52:06.621Z,17.41
2022-09-12T07:53:06.638Z,17.42
2022-09-12T07:54:06.611Z,17.45
2022-09-12T07:55:06.581Z,17.46
2022-09-12T07:56:06.576Z,17.48
2022-09-12T07:57:06.542Z,17.51
2022-09-12T07:58:06.526Z,17.51
2022-09-12T07:59:06.889Z,17.51
2022-09-12T08:00:06.527Z,17.52
2022-09-12T08:01:06.530Z,17.54
2022-09-12T08:02:06.529Z,17.57
2022-09-12T08:03:06.492Z,17.57
2022-09-12T08:04:07.414Z,17.59
2022-09-12T08:05:06.483Z,17.63
2022-09-12T08:06:06.663Z,17.63
2022-09-12T08:07:06.731Z,17.63
2022-09-12T08:08:06.444Z,17.63
2022-09-12T08:09:06.416Z,17.64
2022-09-12T08:10:06.409Z,17.63
2022-09-12T08:11:06.395Z,17.60
2022-09-12T08:12:06.452Z,17.60
2022-09-12T08:13:06.441Z,17.63
2022-09-12T08:14:06.370Z,17.64
2022-09-12T08:15:06.379Z,17.65
2022-09-12T08:16:06.398Z,17.65
2022-09-12T08:17:06.328Z,17.65
2022-09-12T08:18:06.309Z,17.67
2022-09-12T08:19:06.334Z,17.71
2022-09-12T08:20:06.290Z,17.71
2022-09-12T08:21:06.281Z,17.71
2022-09-12T08:22:06.268Z,17.74
2022-09-12T08:23:07.221Z,17.74
2022-09-12T08:24:06.268Z,17.72
2022-09-12T08:25:06.260Z,17.72
2022-09-12T08:26:06.565Z,17.72
2022-09-12T08:27:06.219Z,17.74
2022-09-12T08:28:06.206Z,17.78
2022-09-12T08:29:06.206Z,17.82
2022-09-12T08:30:06.220Z,17.86
2022-09-12T08:31:06.260Z,17.87
2022-09-12T08:32:06.203Z,17.94
2022-09-12T08:33:06.142Z,17.97
2022-09-12T08:34:06.133Z,18.03
2022-09-12T08:35:07.079Z,18.08
2022-09-12T08:36:06.163Z,18.13
2022-09-12T08:37:06.176Z,18.18
2022-09-12T08:38:06.085Z,18.23
2022-09-12T08:39:06.088Z,18.31
2022-09-12T08:40:06.096Z,18.37
2022-09-12T08:41:06.065Z,18.43
2022-09-12T08:42:06.102Z,18.47
2022-09-12T08:43:06.039Z,18.53
2022-09-12T08:44:06.034Z,18.58
2022-09-12T08:45:06.048Z,18.59
2022-09-12T08:46:06.070Z,18.62
2022-09-12T08:47:06.055Z,18.63
2022-09-12T08:48:05.981Z,18.65
2022-09-12T08:49:06.004Z,18.66
2022-09-12T08:50:05.963Z,18.66
2022-09-12T08:51:05.943Z,18.66
2022-09-12T08:52:06.080Z,18.70
2022-09-12T08:53:06.204Z,18.71
2022-09-12T08:54:05.910Z,18.73
2022-09-12T08:55:05.900Z,18.73
2022-09-12T08:56:05.891Z,18.73
2022-09-12T08:57:05.880Z,18.73
2022-09-12T08:58:05.876Z,18.73
2022-09-12T08:59:08.436Z,18.74
2022-09-12T09:00:06.017Z,18.75
2022-09-12T09:01:05.861Z,18.77
2022-09-12T09:02:05.845Z,18.78
2022-09-12T09:03:05.821Z,18.80
2022-09-12T09:04:05.795Z,18.83
2022-09-12T09:05:05.809Z,18.84
2022-09-12T09:06:06.745Z,18.89
2022-09-12T09:07:05.788Z,18.89
2022-09-12T09:08:05.777Z,18.92
2022-09-12T09:09:05.842Z,18.93
2022-09-12T09:10:05.822Z,18.96
2022-09-12T09:11:05.863Z,19.00
2022-09-12T09:12:05.705Z,19.04
2022-09-12T09:13:05.715Z,19.08
2022-09-12T09:14:05.710Z,19.12
2022-09-12T09:15:05.847Z,19.14
2022-09-12T09:16:05.775Z,19.18
2022-09-12T09:17:05.661Z,19.22
2022-09-12T09:18:05.641Z,19.24
2022-09-12T09:19:05.647Z,19.26
2022-09-12T09:20:05.631Z,19.29
2022-09-12T09:21:05.629Z,19.33
2022-09-12T09:22:05.628Z,19.37
2022-09-12T09:23:05.617Z,19.40
2022-09-12T09:24:05.579Z,19.44
2022-09-12T09:25:05.558Z,19.49
2022-09-12T09:26:06.561Z,19.56
2022-09-12T09:27:14.298Z,19.64
2022-09-12T09:28:06.594Z,19.70
2022-09-12T09:29:05.562Z,19.76
2022-09-12T09:30:05.893Z,19.81
2022-09-12T09:31:05.534Z,19.85
2022-09-12T09:32:05.496Z,19.89
2022-09-12T09:33:05.475Z,19.96
2022-09-12T09:34:05.501Z,20.03
2022-09-12T09:35:06.244Z,20.07
2022-09-12T09:36:06.418Z,20.10
2022-09-12T09:37:05.534Z,20.14
2022-09-12T09:38:05.506Z,20.18
2022-09-12T09:39:05.482Z,20.19
2022-09-12T09:40:05.986Z,20.22
2022-09-12T09:41:05.424Z,20.24
2022-09-12T09:42:06.414Z,20.26
2022-09-12T09:43:05.694Z,20.29
2022-09-12T09:44:05.402Z,20.32
2022-09-12T09:45:06.336Z,20.39
2022-09-12T09:46:06.357Z,20.41
2022-09-12T09:47:06.062Z,20.48
2022-09-12T09:48:05.316Z,20.51
2022-09-12T09:49:06.994Z,20.56
2022-09-12T09:50:06.123Z,20.60
2022-09-12T09:51:05.282Z,20.65
2022-09-12T09:52:05.300Z,20.69
2022-09-12T09:53:05.259Z,20.72
2022-09-12T09:54:06.290Z,20.75
2022-09-12T09:55:05.321Z,20.80
2022-09-12T09:56:05.233Z,20.84
2022-09-12T09:57:05.289Z,20.84
2022-09-12T09:58:05.360Z,20.87
2022-09-12T09:59:05.441Z,20.88
2022-09-12T10:00:05.422Z,20.90
2022-09-12T10:01:07.992Z,20.90
2022-09-12T10:02:05.218Z,20.90
2022-09-12T10:03:10.181Z,20.93
2022-09-12T10:04:07.119Z,20.95
2022-09-12T10:05:05.144Z,20.96
2022-09-12T10:06:05.931Z,21.02
2022-09-12T10:07:05.179Z,21.03
2022-09-12T10:08:05.153Z,21.07
2022-09-12T10:09:05.115Z,21.12
2022-09-12T10:10:05.088Z,21.14
2022-09-12T10:11:06.347Z,21.17
2022-09-12T10:12:05.851Z,21.18
2022-09-12T10:13:05.121Z,21.21
2022-09-12T10:14:05.065Z,21.22
2022-09-12T10:15:05.543Z,21.25
2022-09-12T10:16:06.467Z,21.27
2022-09-12T10:17:05.268Z,21.30
2022-09-12T10:18:05.500Z,21.33
2022-09-12T10:19:06.116Z,21.37
2022-09-12T10:20:21.046Z,21.42
2022-09-12T10:21:06.160Z,21.46
2022-09-12T10:22:05.014Z,21.52
2022-09-12T10:23:05.144Z,21.57
2022-09-12T10:24:04.938Z,21.60
2022-09-12T10:25:05.308Z,21.61
2022-09-12T10:26:05.823Z,21.62
2022-09-12T10:27:05.607Z,21.66
2022-09-12T10:28:04.885Z,21.70
2022-09-12T10:29:04.867Z,21.75
2022-09-12T10:30:08.076Z,21.79
2022-09-12T10:31:10.161Z,21.80
2022-09-12T10:32:04.885Z,21.82
2022-09-12T10:33:05.260Z,21.88
2022-09-12T10:34:11.384Z,21.89
2022-09-12T10:35:05.733Z,21.93
2022-09-12T10:36:05.409Z,21.99
2022-09-12T10:37:04.791Z,22.02
2022-09-12T10:38:05.645Z,22.10
2022-09-12T10:39:04.787Z,22.15
2022-09-12T10:40:04.867Z,22.23
2022-09-12T10:41:05.432Z,22.28
2022-09-12T10:42:04.727Z,22.30
2022-09-12T10:43:05.485Z,22.36
2022-09-12T10:44:04.710Z,22.39
2022-09-12T10:45:04.721Z,22.45
2022-09-12T10:46:05.567Z,22.48
2022-09-12T10:47:04.899Z,22.53
2022-09-12T10:48:07.687Z,22.57
2022-09-12T10:49:06.102Z,22.62
2022-09-12T10:50:04.905Z,22.65
2022-09-12T10:51:04.633Z,22.66
2022-09-12T10:52:04.666Z,22.66
2022-09-12T10:53:04.623Z,22.68
2022-09-12T10:54:04.636Z,22.68
2022-09-12T10:55:04.577Z,22.72
2022-09-12T10:56:04.850Z,22.73
2022-09-12T10:57:04.574Z,22.75
2022-09-12T10:58:04.555Z,22.78
2022-09-12T10:59:04.614Z,22.80
2022-09-12T11:00:05.978Z,22.83
2022-09-12T11:01:04.556Z,22.85
2022-09-12T11:02:06.362Z,22.88
2022-09-12T11:03:05.463Z,22.88
2022-09-12T11:04:05.927Z,22.88
2022-09-12T11:05:06.251Z,22.91
2022-09-12T11:06:04.469Z,22.93
2022-09-12T11:07:05.255Z,22.96
2022-09-12T11:08:04.437Z,22.96
2022-09-12T11:09:04.506Z,23.00
2022-09-12T11:10:04.541Z,23.02
2022-09-12T11:11:04.423Z,23.05
2022-09-12T11:12:04.501Z,23.08
2022-09-12T11:13:04.488Z,23.10
2022-09-12T11:14:04.459Z,23.13
2022-09-12T11:15:04.404Z,23.17
2022-09-12T11:16:05.891Z,23.17
2022-09-12T11:17:04.350Z,23.18
2022-09-12T11:18:05.301Z,23.20
2022-09-12T11:19:04.302Z,23.21
2022-09-12T11:20:04.311Z,23.23
2022-09-12T11:21:05.756Z,23.25
2022-09-12T11:22:05.736Z,23.27
2022-09-12T11:23:04.591Z,23.31
2022-09-12T11:24:04.278Z,23.34
2022-09-12T11:25:04.286Z,23.39
2022-09-12T11:26:04.244Z,23.40
2022-09-12T11:27:04.232Z,23.43
2022-09-12T11:28:04.217Z,23.47
2022-09-12T11:29:04.239Z,23.50
2022-09-12T11:30:04.424Z,23.54
2022-09-12T11:31:04.276Z,23.55
2022-09-12T11:32:05.632Z,23.58
2022-09-12T11:33:04.172Z,23.56
2022-09-12T11:34:04.524Z,23.59
2022-09-12T11:35:05.589Z,23.59
2022-09-12T11:36:04.257Z,23.61
2022-09-12T11:37:08.575Z,23.63
2022-09-12T11:38:05.852Z,23.66
2022-09-12T11:39:05.023Z,23.69
2022-09-12T11:40:04.227Z,23.74
2022-09-12T11:41:04.072Z,23.76
2022-09-12T11:42:04.552Z,23.80
2022-09-12T11:43:05.514Z,23.83
2022-09-12T11:44:04.374Z,23.86
2022-09-12T11:45:04.027Z,23.86
2022-09-12T11:46:04.093Z,23.84
2022-09-12T11:47:04.003Z,23.83
2022-09-12T11:48:04.003Z,23.81
2022-09-12T11:49:04.029Z,23.83
2022-09-12T11:50:04.963Z,23.81
2022-09-12T11:51:03.966Z,23.83
2022-09-12T11:52:04.568Z,23.83
2022-09-12T11:53:03.948Z,23.84
2022-09-12T11:54:03.946Z,23.80
2022-09-12T11:55:03.957Z,23.78
2022-09-12T11:56:03.919Z,23.77
2022-09-12T11:57:04.045Z,23.76
2022-09-12T11:58:03.898Z,23.76
2022-09-12T11:59:03.894Z,23.78
2022-09-12T12:00:04.277Z,23.83
2022-09-12T12:01:03.880Z,23.87
2022-09-12T12:02:03.935Z,23.91
2022-09-12T12:03:03.860Z,23.96
2022-09-12T12:04:04.782Z,24.02
2022-09-12T12:05:03.808Z,24.06
2022-09-12T12:06:04.655Z,24.11
2022-09-12T12:07:04.350Z,24.17
2022-09-12T12:08:03.810Z,24.21
2022-09-12T12:09:03.766Z,24.24
2022-09-12T12:10:04.356Z,24.24
2022-09-12T12:11:05.701Z,24.24
2022-09-12T12:12:03.742Z,24.28
2022-09-12T12:13:03.843Z,24.28
2022-09-12T12:14:03.717Z,24.28
2022-09-12T12:15:03.733Z,24.28
2022-09-12T12:16:05.183Z,24.32
2022-09-12T12:17:03.682Z,24.36
2022-09-12T12:18:04.500Z,24.45
2022-09-12T12:19:06.496Z,24.53
2022-09-12T12:20:08.139Z,24.58
2022-09-12T12:21:03.662Z,24.65
2022-09-12T12:22:04.457Z,24.74
2022-09-12T12:23:04.238Z,24.81
2022-09-12T12:24:04.444Z,24.96
2022-09-12T12:25:05.047Z,25.11
2022-09-12T12:26:03.598Z,25.33
2022-09-12T12:27:04.319Z,25.60
2022-09-12T12:28:03.582Z,25.84
2022-09-12T12:29:04.161Z,26.07
2022-09-12T12:30:03.905Z,26.33
2022-09-12T12:31:03.926Z,26.58
2022-09-12T12:32:03.747Z,26.88
2022-09-12T12:33:04.965Z,27.12
2022-09-12T12:34:04.098Z,27.30
2022-09-12T12:35:03.550Z,27.49
2022-09-12T12:36:04.930Z,27.68
2022-09-12T12:37:07.268Z,27.85
2022-09-12T12:38:04.908Z,27.98
2022-09-12T12:39:03.724Z,28.12
2022-09-12T12:40:03.561Z,28.30
2022-09-12T12:41:04.884Z,28.47
2022-09-12T12:42:04.251Z,28.66
2022-09-12T12:43:03.398Z,28.88
2022-09-12T12:44:03.561Z,29.12
2022-09-12T12:45:03.525Z,29.27
2022-09-12T12:46:03.624Z,29.36
2022-09-12T12:47:03.439Z,29.42
2022-09-12T12:48:08.077Z,29.51
2022-09-12T12:49:03.510Z,29.65
2022-09-12T12:50:03.458Z,29.78
2022-09-12T12:51:03.511Z,29.84
2022-09-12T12:52:03.442Z,29.91